createdAt,value
2018-12-18T00:00:47.001Z,72.82
2018-12-18T00:01:49.523Z,72.72
2018-12-18T00:02:52.213Z,72.35
2018-12-18T00:03:54.703Z,72.44
2018-12-18T00:04:57.134Z,72.62
2018-12-18T00:05:59.595Z,72.75
2018-12-18T00:07:02.057Z,72.23
2018-12-18T00:08:04.609Z,72.11
2018-12-18T00:09:07.382Z,72.18
2018-12-18T00:10:10.000Z,71.54
2018-12-18T00:11:12.444Z,71.25
2018-12-18T00:12:14.922Z,71.59
2018-12-18T00:13:17.367Z,71.93
2018-12-18T00:14:19.826Z,71.75
2018-12-18T00:15:22.327Z,71.83
2018-12-18T00:16:24.763Z,71.32
2018-12-18T00:17:27.245Z,71.56
2018-12-18T00:18:29.708Z,71.38
2018-12-18T00:19:32.164Z,71.68
2018-12-18T00:20:34.607Z,71.24
2018-12-18T00:21:37.043Z,71.40
2018-12-18T00:22:39.485Z,72.09
2018-12-18T00:23:41.931Z,72.03
2018-12-18T00:24:44.374Z,72.17
2018-12-18T00:25:46.806Z,72.08
2018-12-18T00:26:49.237Z,71.79
2018-12-18T00:27:51.691Z,71.87
2018-12-18T00:28:54.171Z,71.67
2018-12-18T00:29:56.649Z,71.76
2018-12-18T00:30:59.083Z,72.02
2018-12-18T00:32:01.521Z,71.42
2018-12-18T00:33:04.123Z,71.33
2018-12-18T00:34:06.587Z,71.56
2018-12-18T00:35:09.025Z,71.78
2018-12-18T00:36:11.591Z,71.93
2018-12-18T00:37:14.027Z,71.49
2018-12-18T00:38:16.474Z,71.63
2018-12-18T00:39:19.057Z,71.80
2018-12-18T00:40:21.711Z,71.47
2018-12-18T00:41:24.146Z,71.56
2018-12-18T00:42:26.581Z,71.50
2018-12-18T00:43:29.027Z,71.53
2018-12-18T00:44:31.489Z,71.66
2018-12-18T00:45:33.926Z,71.28
2018-12-18T00:46:36.363Z,71.49
2018-12-18T00:47:38.802Z,71.80
2018-12-18T00:48:41.308Z,71.83
2018-12-18T00:49:43.827Z,71.43
2018-12-18T00:50:46.347Z,71.51
2018-12-18T00:51:48.893Z,71.27
2018-12-18T00:52:51.388Z,71.44
2018-12-18T00:53:53.839Z,71.43
2018-12-18T00:54:56.284Z,71.58
2018-12-18T00:55:58.731Z,70.94
2018-12-18T00:57:01.202Z,71.63
2018-12-18T00:58:03.640Z,70.84
2018-12-18T00:59:06.123Z,71.08
2018-12-18T01:00:09.353Z,71.11
2018-12-18T01:01:11.791Z,71.68
2018-12-18T01:02:14.223Z,71.69
2018-12-18T01:03:16.668Z,71.54
2018-12-18T01:04:19.126Z,71.68
2018-12-18T01:05:21.689Z,71.08
2018-12-18T01:06:24.112Z,71.62
2018-12-18T01:07:26.630Z,71.96
2018-12-18T01:08:29.059Z,71.55
2018-12-18T01:09:31.484Z,71.00
2018-12-18T01:10:33.944Z,71.52
2018-12-18T01:11:36.486Z,71.21
2018-12-18T01:12:38.933Z,71.26
2018-12-18T01:13:41.463Z,71.01
2018-12-18T01:14:43.984Z,71.62
2018-12-18T01:15:46.446Z,71.00
2018-12-18T01:16:48.887Z,71.53
2018-12-18T01:17:51.313Z,70.88
2018-12-18T01:18:53.750Z,70.82
2018-12-18T01:19:56.184Z,70.97
2018-12-18T01:20:58.631Z,71.04
2018-12-18T01:22:01.072Z,71.28
2018-12-18T01:23:03.506Z,71.25
2018-12-18T01:24:05.943Z,71.41
2018-12-18T01:25:08.383Z,71.30
2018-12-18T01:26:10.843Z,71.33
2018-12-18T01:27:13.280Z,70.67
2018-12-18T01:28:15.710Z,70.98
2018-12-18T01:29:18.143Z,71.24
2018-12-18T01:30:20.595Z,71.44
2018-12-18T01:31:23.036Z,71.26
2018-12-18T01:32:25.468Z,71.01
2018-12-18T01:33:27.898Z,70.97
2018-12-18T01:34:30.329Z,71.58
2018-12-18T01:35:32.790Z,71.03
2018-12-18T01:36:35.250Z,71.11
2018-12-18T01:37:37.696Z,70.96
2018-12-18T01:38:40.134Z,71.56
2018-12-18T01:39:42.568Z,71.06
2018-12-18T01:40:45.011Z,71.11
2018-12-18T01:41:47.475Z,71.56
2018-12-18T01:42:49.907Z,71.59
2018-12-18T01:43:52.350Z,71.58
2018-12-18T01:44:54.825Z,71.00
2018-12-18T01:45:57.268Z,71.23
2018-12-18T01:46:59.728Z,71.40
2018-12-18T01:48:02.193Z,70.93
2018-12-18T01:49:04.633Z,70.99
2018-12-18T01:50:07.242Z,71.69
2018-12-18T01:51:09.675Z,71.04
2018-12-18T01:52:12.126Z,71.54
2018-12-18T01:53:14.587Z,71.19
2018-12-18T01:54:17.047Z,71.15
2018-12-18T01:55:19.500Z,71.80
2018-12-18T01:56:21.956Z,71.29
2018-12-18T01:57:24.402Z,72.04
2018-12-18T01:58:26.828Z,71.49
2018-12-18T01:59:29.272Z,71.93
2018-12-18T02:00:31.712Z,71.49
2018-12-18T02:01:34.155Z,71.74
2018-12-18T02:02:36.615Z,71.34
2018-12-18T02:03:39.051Z,71.75
2018-12-18T02:04:41.483Z,71.50
2018-12-18T02:05:43.936Z,71.42
2018-12-18T02:06:46.393Z,71.77
2018-12-18T02:07:48.836Z,71.72
2018-12-18T02:08:51.272Z,71.18
2018-12-18T02:09:53.706Z,71.32
2018-12-18T02:10:56.147Z,71.87
2018-12-18T02:11:58.594Z,71.63
2018-12-18T02:13:01.036Z,72.09
2018-12-18T02:14:03.488Z,71.62
2018-12-18T02:15:06.226Z,71.76
2018-12-18T02:16:09.847Z,71.86
2018-12-18T02:17:12.309Z,71.48
2018-12-18T02:18:14.787Z,71.67
2018-12-18T02:19:17.228Z,71.65
2018-12-18T02:20:19.664Z,72.15
2018-12-18T02:21:22.615Z,71.77
2018-12-18T02:22:25.071Z,72.29
2018-12-18T02:23:27.614Z,72.33
2018-12-18T02:24:30.043Z,72.04
2018-12-18T02:25:32.480Z,72.03
2018-12-18T02:26:34.922Z,71.86
2018-12-18T02:27:37.386Z,71.98
2018-12-18T02:28:39.829Z,72.10
2018-12-18T02:29:42.278Z,72.27
2018-12-18T02:30:44.724Z,72.00
2018-12-18T02:31:47.190Z,72.29
2018-12-18T02:32:49.651Z,72.52
2018-12-18T02:33:52.090Z,72.06
2018-12-18T02:34:54.528Z,72.58
2018-12-18T02:35:56.960Z,72.16
2018-12-18T02:37:00.303Z,72.25
2018-12-18T02:38:02.774Z,72.17
2018-12-18T02:39:06.287Z,71.95
2018-12-18T02:40:08.716Z,72.48
2018-12-18T02:41:11.227Z,72.05
2018-12-18T02:42:13.663Z,72.44
2018-12-18T02:43:16.155Z,72.60
2018-12-18T02:44:18.644Z,71.76
2018-12-18T02:45:21.071Z,72.41
2018-12-18T02:46:23.535Z,72.50
2018-12-18T02:47:25.993Z,72.54
2018-12-18T02:48:28.628Z,72.07
2018-12-18T02:49:31.092Z,72.17
2018-12-18T02:50:33.523Z,72.39
2018-12-18T02:51:35.961Z,72.43
2018-12-18T02:52:39.204Z,72.23
2018-12-18T02:53:41.669Z,72.04
2018-12-18T02:54:44.153Z,72.37
2018-12-18T02:55:46.671Z,72.31
2018-12-18T02:56:49.109Z,72.10
2018-12-18T02:57:51.547Z,72.47
2018-12-18T02:58:54.022Z,71.79
2018-12-18T02:59:56.448Z,71.91
2018-12-18T03:00:58.893Z,72.28
2018-12-18T03:02:01.330Z,72.07
2018-12-18T03:03:03.863Z,71.94
2018-12-18T03:04:06.329Z,72.35
2018-12-18T03:05:08.769Z,71.89
2018-12-18T03:06:11.212Z,72.39
2018-12-18T03:07:13.657Z,71.97
2018-12-18T03:08:16.657Z,72.34
2018-12-18T03:09:19.198Z,71.98
2018-12-18T03:10:21.659Z,71.91
2018-12-18T03:11:24.089Z,71.98
2018-12-18T03:12:26.520Z,71.60
2018-12-18T03:13:28.971Z,71.54
2018-12-18T03:14:31.436Z,71.61
2018-12-18T03:15:34.014Z,71.88
2018-12-18T03:16:36.441Z,71.97
2018-12-18T03:17:38.887Z,71.65
2018-12-18T03:18:41.331Z,71.94
2018-12-18T03:19:43.785Z,72.13
2018-12-18T03:20:46.264Z,71.80
2018-12-18T03:21:48.692Z,71.69
2018-12-18T03:22:51.135Z,71.76
2018-12-18T03:23:53.764Z,72.40
2018-12-18T03:24:56.256Z,72.13
2018-12-18T03:25:58.683Z,72.00
2018-12-18T03:27:01.115Z,71.76
2018-12-18T03:28:03.570Z,72.38
2018-12-18T03:29:06.027Z,71.83
2018-12-18T03:30:08.466Z,71.83
2018-12-18T03:31:11.512Z,71.85
2018-12-18T03:32:14.655Z,72.04
2018-12-18T03:33:17.295Z,71.85
2018-12-18T03:34:19.770Z,71.62
2018-12-18T03:35:22.326Z,71.84
2018-12-18T03:36:24.890Z,72.20
2018-12-18T03:37:27.327Z,71.78
2018-12-18T03:38:29.772Z,72.18
2018-12-18T03:39:32.229Z,71.86
2018-12-18T03:40:34.660Z,72.01
2018-12-18T03:41:37.123Z,72.17
2018-12-18T03:42:39.574Z,72.33
2018-12-18T03:43:42.009Z,72.35
2018-12-18T03:44:44.612Z,72.40
2018-12-18T03:45:47.092Z,71.65
2018-12-18T03:46:49.561Z,71.92
2018-12-18T03:47:52.015Z,72.15
2018-12-18T03:48:54.459Z,72.06
2018-12-18T03:49:56.907Z,72.21
2018-12-18T03:50:59.358Z,71.72
2018-12-18T03:52:01.832Z,71.72
2018-12-18T03:53:04.273Z,72.05
2018-12-18T03:54:06.703Z,71.74
2018-12-18T03:55:09.281Z,72.03
2018-12-18T03:56:11.721Z,72.20
2018-12-18T03:57:14.188Z,71.63
2018-12-18T03:58:16.668Z,71.62
2018-12-18T03:59:19.109Z,71.84
2018-12-18T04:00:21.562Z,71.58
2018-12-18T04:01:24.015Z,71.58
2018-12-18T04:02:26.496Z,71.53
2018-12-18T04:03:28.931Z,71.92
2018-12-18T04:04:35.466Z,71.84
2018-12-18T04:05:35.863Z,71.73
2018-12-18T04:06:38.410Z,72.13
2018-12-18T04:07:40.863Z,71.54
2018-12-18T04:08:43.334Z,71.79
2018-12-18T04:09:46.095Z,71.50
2018-12-18T04:10:48.550Z,71.43
2018-12-18T04:11:56.715Z,72.07
2018-12-18T04:12:59.148Z,71.53
2018-12-18T04:14:01.594Z,71.57
2018-12-18T04:15:04.863Z,71.91
2018-12-18T04:16:07.331Z,71.34
2018-12-18T04:17:09.767Z,71.78
2018-12-18T04:18:12.220Z,71.36
2018-12-18T04:19:14.647Z,71.41
2018-12-18T04:20:17.086Z,71.17
2018-12-18T04:21:19.530Z,71.20
2018-12-18T04:22:22.112Z,71.48
2018-12-18T04:23:24.552Z,71.85
2018-12-18T04:24:27.001Z,71.53
2018-12-18T04:25:29.432Z,72.18
2018-12-18T04:26:31.887Z,72.22
2018-12-18T04:27:34.337Z,71.99
2018-12-18T04:28:36.784Z,72.15
2018-12-18T04:29:39.241Z,72.15
2018-12-18T04:30:41.722Z,71.57
2018-12-18T04:31:44.175Z,71.39
2018-12-18T04:32:46.623Z,71.67
2018-12-18T04:33:49.056Z,71.42
2018-12-18T04:34:51.480Z,71.33
2018-12-18T04:35:53.926Z,71.75
2018-12-18T04:36:56.384Z,71.79
2018-12-18T04:37:58.859Z,71.83
2018-12-18T04:39:01.291Z,71.22
2018-12-18T04:40:05.512Z,72.01
2018-12-18T04:41:07.951Z,71.37
2018-12-18T04:42:10.452Z,71.95
2018-12-18T04:43:12.920Z,71.42
2018-12-18T04:44:15.374Z,71.84
2018-12-18T04:45:17.805Z,71.54
2018-12-18T04:46:20.256Z,71.75
2018-12-18T04:47:22.706Z,71.43
2018-12-18T04:48:25.170Z,71.38
2018-12-18T04:49:27.699Z,71.83
2018-12-18T04:50:30.132Z,71.52
2018-12-18T04:51:32.567Z,71.98
2018-12-18T04:52:35.016Z,71.90
2018-12-18T04:53:37.463Z,71.75
2018-12-18T04:54:40.031Z,71.85
2018-12-18T04:55:42.491Z,71.71
2018-12-18T04:56:44.923Z,71.34
2018-12-18T04:57:47.400Z,71.80
2018-12-18T04:58:49.845Z,71.67
2018-12-18T04:59:52.310Z,71.67
2018-12-18T05:00:54.754Z,71.22
2018-12-18T05:01:57.205Z,71.21
2018-12-18T05:02:59.654Z,70.93
2018-12-18T05:04:02.107Z,71.21
2018-12-18T05:05:04.632Z,71.66
2018-12-18T05:06:07.063Z,71.29
2018-12-18T05:07:09.506Z,71.63
2018-12-18T05:08:11.954Z,71.35
2018-12-18T05:09:14.694Z,71.36
2018-12-18T05:10:17.465Z,71.34
2018-12-18T05:11:19.895Z,71.51
2018-12-18T05:12:22.336Z,71.49
2018-12-18T05:13:24.816Z,71.92
2018-12-18T05:14:27.267Z,71.47
2018-12-18T05:15:29.712Z,71.95
2018-12-18T05:16:32.151Z,71.86
2018-12-18T05:17:34.612Z,71.48
2018-12-18T05:18:37.202Z,71.74
2018-12-18T05:19:39.637Z,71.87
2018-12-18T05:20:42.071Z,71.50
2018-12-18T05:21:44.646Z,72.08
2018-12-18T05:22:47.095Z,72.15
2018-12-18T05:23:49.623Z,72.07
2018-12-18T05:24:52.085Z,72.00
2018-12-18T05:25:54.533Z,71.82
2018-12-18T05:26:56.965Z,72.15
2018-12-18T05:27:59.474Z,71.99
2018-12-18T05:29:01.944Z,71.64
2018-12-18T05:30:06.487Z,72.22
2018-12-18T05:31:08.945Z,71.60
2018-12-18T05:32:11.383Z,71.77
2018-12-18T05:33:13.857Z,71.65
2018-12-18T05:34:16.420Z,71.64
2018-12-18T05:35:18.908Z,71.57
2018-12-18T05:36:21.353Z,72.36
2018-12-18T05:37:23.799Z,71.70
2018-12-18T05:38:26.277Z,72.24
2018-12-18T05:39:28.805Z,71.88
2018-12-18T05:40:31.239Z,72.13
2018-12-18T05:41:33.683Z,71.83
2018-12-18T05:42:36.119Z,71.72
2018-12-18T05:43:38.581Z,72.10
2018-12-18T05:44:41.027Z,71.50
2018-12-18T05:45:43.512Z,71.96
2018-12-18T05:46:45.935Z,72.15
2018-12-18T05:47:48.370Z,71.58
2018-12-18T05:48:50.811Z,71.98
2018-12-18T05:49:53.388Z,72.11
2018-12-18T05:50:55.859Z,72.06
2018-12-18T05:51:58.300Z,71.59
2018-12-18T05:53:00.739Z,71.65
2018-12-18T05:54:03.319Z,72.18
2018-12-18T05:55:05.970Z,72.12
2018-12-18T05:56:08.536Z,71.62
2018-12-18T05:57:11.015Z,72.19
2018-12-18T05:58:13.447Z,71.90
2018-12-18T05:59:15.889Z,71.75
2018-12-18T06:00:18.353Z,72.23
2018-12-18T06:01:20.814Z,72.18
2018-12-18T06:02:23.273Z,71.69
2018-12-18T06:03:25.712Z,71.82
2018-12-18T06:04:28.151Z,72.27
2018-12-18T06:05:30.647Z,71.91
2018-12-18T06:06:33.097Z,71.85
2018-12-18T06:07:35.528Z,72.55
2018-12-18T06:08:38.022Z,71.76
2018-12-18T06:09:40.785Z,71.76
2018-12-18T06:10:44.099Z,72.27
2018-12-18T06:11:46.609Z,72.16
2018-12-18T06:12:49.084Z,71.70
2018-12-18T06:13:51.611Z,71.66
2018-12-18T06:14:54.198Z,71.68
2018-12-18T06:15:56.845Z,72.31
2018-12-18T06:18:12.256Z,71.43
2018-12-18T06:19:14.684Z,72.09
2018-12-18T06:20:17.126Z,71.82
2018-12-18T06:21:19.584Z,72.04
2018-12-18T06:22:22.110Z,71.88
2018-12-18T06:23:24.619Z,71.83
2018-12-18T06:24:27.089Z,71.50
2018-12-18T06:25:29.588Z,71.79
2018-12-18T06:26:32.207Z,71.78
2018-12-18T06:27:34.753Z,71.76
2018-12-18T06:28:37.213Z,72.14
2018-12-18T06:29:39.657Z,71.75
2018-12-18T06:30:42.158Z,72.29
2018-12-18T06:31:44.660Z,72.21
2018-12-18T06:32:47.108Z,71.60
2018-12-18T06:33:49.601Z,72.24
2018-12-18T06:34:52.078Z,72.03
2018-12-18T06:35:54.577Z,72.20
2018-12-18T06:36:57.097Z,71.57
2018-12-18T06:37:59.643Z,71.48
2018-12-18T06:39:02.154Z,71.41
2018-12-18T06:40:05.780Z,71.58
2018-12-18T06:41:08.233Z,71.91
2018-12-18T06:42:10.711Z,71.95
2018-12-18T06:43:13.174Z,71.73
2018-12-18T06:44:15.616Z,71.31
2018-12-18T06:45:18.062Z,71.92
2018-12-18T06:46:20.543Z,71.52
2018-12-18T06:47:22.989Z,71.39
2018-12-18T06:48:25.741Z,71.88
2018-12-18T06:49:28.337Z,71.30
2018-12-18T06:50:30.811Z,71.31
2018-12-18T06:51:33.259Z,72.00
2018-12-18T06:52:35.826Z,71.61
2018-12-18T06:53:38.374Z,71.50
2018-12-18T06:54:40.838Z,71.74
2018-12-18T06:55:43.327Z,71.81
2018-12-18T06:56:45.759Z,71.44
2018-12-18T06:57:48.231Z,71.17
2018-12-18T06:58:50.680Z,71.04
2018-12-18T06:59:53.167Z,71.41
2018-12-18T07:00:55.615Z,71.55
2018-12-18T07:01:58.059Z,71.65
2018-12-18T07:03:00.521Z,71.72
2018-12-18T07:04:03.123Z,71.52
2018-12-18T07:05:05.679Z,71.32
2018-12-18T07:06:08.150Z,71.63
2018-12-18T07:07:10.658Z,71.06
2018-12-18T07:08:13.235Z,71.58
2018-12-18T07:09:15.871Z,71.15
2018-12-18T07:10:19.655Z,71.54
2018-12-18T07:11:23.568Z,71.03
2018-12-18T07:12:26.168Z,71.37
2018-12-18T07:13:28.672Z,71.52
2018-12-18T07:14:31.463Z,71.45
2018-12-18T07:15:33.939Z,71.13
2018-12-18T07:16:36.419Z,70.74
2018-12-18T07:17:38.915Z,71.13
2018-12-18T07:18:41.527Z,71.19
2018-12-18T07:19:44.109Z,70.53
2018-12-18T07:20:46.740Z,70.74
2018-12-18T07:21:49.839Z,70.91
2018-12-18T07:22:52.478Z,70.90
2018-12-18T07:23:54.987Z,70.52
2018-12-18T07:24:57.542Z,70.96
2018-12-18T07:26:00.019Z,70.95
2018-12-18T07:27:02.461Z,71.01
2018-12-18T07:28:05.778Z,70.92
2018-12-18T07:29:11.648Z,70.91
2018-12-18T07:30:14.194Z,70.49
2018-12-18T07:31:16.685Z,70.69
2018-12-18T07:32:20.044Z,70.61
2018-12-18T07:33:23.308Z,70.87
2018-12-18T07:34:26.295Z,70.58
2018-12-18T07:35:32.399Z,71.19
2018-12-18T07:36:34.922Z,71.27
2018-12-18T07:37:37.714Z,70.54
2018-12-18T07:38:40.472Z,71.15
2018-12-18T07:39:44.533Z,71.11
2018-12-18T07:40:50.242Z,70.56
2018-12-18T07:41:57.431Z,70.74
2018-12-18T07:43:01.522Z,70.62
2018-12-18T07:44:04.185Z,71.04
2018-12-18T07:45:07.401Z,70.49
2018-12-18T07:46:09.948Z,70.85
2018-12-18T07:47:12.457Z,70.41
2018-12-18T07:48:15.008Z,70.34
2018-12-18T07:49:19.622Z,70.97
2018-12-18T07:50:23.582Z,70.76
2018-12-18T07:51:26.859Z,70.49
2018-12-18T07:52:29.349Z,70.75
2018-12-18T07:53:31.806Z,70.40
2018-12-18T07:54:35.132Z,70.46
2018-12-18T07:55:37.684Z,70.57
2018-12-18T07:56:40.190Z,70.75
2018-12-18T07:58:51.373Z,70.36
2018-12-18T07:59:53.832Z,70.64
2018-12-18T08:00:56.289Z,70.27
2018-12-18T08:01:58.799Z,70.54
2018-12-18T08:03:01.331Z,71.01
2018-12-18T08:04:03.869Z,71.08
2018-12-18T08:05:06.387Z,70.95
2018-12-18T08:06:08.847Z,70.38
2018-12-18T08:07:11.293Z,70.78
2018-12-18T08:08:13.719Z,70.62
2018-12-18T08:09:16.240Z,70.86
2018-12-18T08:10:18.670Z,70.27
2018-12-18T08:11:21.136Z,70.58
2018-12-18T08:12:25.373Z,70.46
2018-12-18T08:13:27.820Z,70.29
2018-12-18T08:14:30.280Z,70.64
2018-12-18T08:15:32.826Z,70.09
2018-12-18T08:16:35.279Z,70.44
2018-12-18T08:17:37.707Z,70.76
2018-12-18T08:18:40.147Z,70.44
2018-12-18T08:19:42.586Z,69.83
2018-12-18T08:20:46.243Z,70.59
2018-12-18T08:21:48.911Z,69.96
2018-12-18T08:22:51.380Z,70.03
2018-12-18T08:23:53.820Z,70.23
2018-12-18T08:24:56.361Z,70.27
2018-12-18T08:25:58.802Z,69.94
2018-12-18T08:27:01.325Z,70.21
2018-12-18T08:28:03.791Z,69.82
2018-12-18T08:29:06.215Z,69.89
2018-12-18T08:30:08.744Z,70.15
2018-12-18T08:31:11.176Z,69.87
2018-12-18T08:32:13.631Z,69.61
2018-12-18T08:33:16.181Z,69.56
2018-12-18T08:34:18.645Z,69.72
2018-12-18T08:35:21.090Z,70.04
2018-12-18T08:36:23.548Z,69.69
2018-12-18T08:37:26.012Z,69.49
2018-12-18T08:38:28.477Z,69.65
2018-12-18T08:39:30.905Z,70.02
2018-12-18T08:40:33.343Z,69.81
2018-12-18T08:41:35.793Z,69.24
2018-12-18T08:42:38.249Z,69.62
2018-12-18T08:43:40.728Z,69.33
2018-12-18T08:44:43.161Z,69.32
2018-12-18T08:45:45.678Z,69.33
2018-12-18T08:46:48.132Z,69.35
2018-12-18T08:47:50.720Z,69.57
2018-12-18T08:48:53.215Z,69.08
2018-12-18T08:49:55.645Z,69.13
2018-12-18T08:50:58.104Z,69.61
2018-12-18T08:52:00.545Z,69.43
2018-12-18T08:53:03.087Z,69.28
2018-12-18T08:54:05.547Z,68.77
2018-12-18T08:55:08.067Z,69.15
2018-12-18T08:56:10.509Z,69.11
2018-12-18T08:57:13.023Z,69.31
2018-12-18T08:58:15.555Z,69.34
2018-12-18T08:59:18.008Z,69.05
2018-12-18T09:00:20.568Z,69.19
2018-12-18T09:01:23.012Z,69.16
2018-12-18T09:02:25.464Z,69.05
2018-12-18T09:03:27.924Z,69.25
2018-12-18T09:04:30.384Z,68.84
2018-12-18T09:05:32.821Z,68.83
2018-12-18T09:06:35.264Z,68.40
2018-12-18T09:07:37.703Z,68.80
2018-12-18T09:08:40.160Z,68.44
2018-12-18T09:09:42.622Z,68.84
2018-12-18T09:10:45.082Z,68.43
2018-12-18T09:11:47.520Z,68.20
2018-12-18T09:12:49.948Z,68.79
2018-12-18T09:13:52.392Z,68.18
2018-12-18T09:14:56.644Z,68.22
2018-12-18T09:15:59.103Z,68.43
2018-12-18T09:17:02.786Z,68.10
2018-12-18T09:18:05.227Z,68.60
2018-12-18T09:19:07.675Z,68.41
2018-12-18T09:20:10.133Z,68.04
2018-12-18T09:21:12.641Z,68.00
2018-12-18T09:22:15.074Z,67.66
2018-12-18T09:23:17.507Z,68.20
2018-12-18T09:24:19.960Z,67.82
2018-12-18T09:25:22.493Z,67.65
2018-12-18T09:26:24.930Z,68.08
2018-12-18T09:27:27.391Z,67.64
2018-12-18T09:28:29.837Z,67.51
2018-12-18T09:29:33.017Z,67.78
2018-12-18T09:30:35.709Z,67.60
2018-12-18T09:31:39.931Z,67.75
2018-12-18T09:32:42.375Z,67.63
2018-12-18T09:33:44.820Z,67.12
2018-12-18T09:34:47.481Z,67.66
2018-12-18T09:35:50.033Z,67.86
2018-12-18T09:36:52.581Z,67.77
2018-12-18T09:39:36.609Z,67.35
2018-12-18T09:40:44.842Z,67.32
2018-12-18T09:41:47.283Z,67.42
2018-12-18T09:42:55.323Z,67.13
2018-12-18T09:43:59.749Z,67.12
2018-12-18T09:45:02.357Z,66.64
2018-12-18T09:46:04.843Z,66.89
2018-12-18T09:47:07.471Z,66.24
2018-12-18T09:48:09.905Z,66.05
2018-12-18T09:49:12.339Z,66.31
2018-12-18T09:50:14.800Z,65.96
2018-12-18T09:51:17.418Z,66.11
2018-12-18T09:52:19.887Z,65.20
2018-12-18T09:53:22.319Z,65.54
2018-12-18T09:54:24.763Z,65.82
2018-12-18T09:55:27.249Z,65.97
2018-12-18T09:56:31.766Z,65.27
2018-12-18T09:57:40.058Z,65.97
2018-12-18T09:58:42.534Z,65.32
2018-12-18T09:59:45.086Z,65.34
2018-12-18T10:00:47.584Z,64.74
2018-12-18T10:01:50.097Z,63.58
2018-12-18T10:02:52.546Z,64.48
2018-12-18T10:03:55.114Z,64.00
2018-12-18T10:04:57.616Z,64.47
2018-12-18T10:06:00.129Z,64.10
2018-12-18T10:07:02.596Z,64.05
2018-12-18T10:08:05.087Z,64.26
2018-12-18T10:09:09.791Z,64.28
2018-12-18T10:10:12.187Z,64.28
2018-12-18T10:11:14.798Z,64.16
2018-12-18T10:12:19.693Z,64.08
2018-12-18T10:13:22.147Z,63.44
2018-12-18T10:14:24.631Z,63.91
2018-12-18T10:15:27.302Z,64.04
2018-12-18T10:16:29.742Z,63.38
2018-12-18T10:17:32.215Z,63.24
2018-12-18T10:18:34.827Z,62.59
2018-12-18T10:19:37.366Z,62.10
2018-12-18T10:20:39.917Z,61.73
2018-12-18T10:21:42.365Z,62.31
2018-12-18T10:22:44.828Z,62.56
2018-12-18T10:23:47.277Z,62.94
2018-12-18T10:24:49.706Z,62.92
2018-12-18T10:25:52.152Z,62.63
2018-12-18T10:26:54.579Z,62.04
2018-12-18T10:27:57.047Z,62.98
2018-12-18T10:28:59.484Z,62.20
2018-12-18T10:30:01.945Z,62.54
2018-12-18T10:31:04.426Z,62.78
2018-12-18T10:32:06.912Z,62.25
2018-12-18T10:33:09.446Z,62.73
2018-12-18T10:34:11.909Z,62.70
2018-12-18T10:35:14.471Z,62.30
2018-12-18T10:36:16.952Z,62.27
2018-12-18T10:37:20.083Z,62.54
2018-12-18T10:38:22.536Z,61.76
2018-12-18T10:39:25.004Z,62.16
2018-12-18T10:40:27.439Z,62.02
2018-12-18T10:41:29.867Z,62.24
2018-12-18T10:42:32.308Z,61.71
2018-12-18T10:43:34.757Z,61.68
2018-12-18T10:44:37.210Z,61.66
2018-12-18T10:45:39.660Z,61.68
2018-12-18T10:46:42.115Z,61.58
2018-12-18T10:47:44.546Z,61.09
2018-12-18T10:48:47.020Z,60.13
2018-12-18T10:49:49.456Z,61.18
2018-12-18T10:50:51.888Z,60.55
2018-12-18T10:51:54.323Z,60.46
2018-12-18T10:52:56.908Z,60.60
2018-12-18T10:53:59.355Z,60.23
2018-12-18T10:55:01.846Z,60.19
2018-12-18T10:56:04.289Z,60.47
2018-12-18T10:57:06.752Z,59.95
2018-12-18T10:58:09.199Z,58.84
2018-12-18T10:59:11.662Z,58.70
2018-12-18T11:00:16.115Z,58.14
2018-12-18T11:02:51.308Z,56.62
2018-12-18T11:03:53.736Z,56.63
2018-12-18T11:04:56.181Z,56.17
2018-12-18T11:05:58.619Z,56.35
2018-12-18T11:07:01.073Z,56.00
2018-12-18T11:08:03.524Z,56.16
2018-12-18T11:09:08.475Z,55.71
2018-12-18T11:10:10.924Z,55.72
2018-12-18T11:11:13.426Z,55.92
2018-12-18T11:12:17.850Z,55.78
2018-12-18T11:13:20.299Z,55.39
2018-12-18T11:14:22.730Z,55.49
2018-12-18T11:15:25.184Z,55.70
2018-12-18T11:16:27.626Z,55.70
2018-12-18T11:17:30.068Z,55.56
2018-12-18T11:18:32.525Z,55.10
2018-12-18T11:19:34.982Z,55.60
2018-12-18T11:20:37.447Z,55.54
2018-12-18T11:21:39.886Z,55.86
2018-12-18T11:22:42.323Z,55.80
2018-12-18T11:23:44.763Z,55.53
2018-12-18T11:24:47.263Z,55.58
2018-12-18T11:25:49.754Z,56.11
2018-12-18T11:26:52.719Z,55.94
2018-12-18T11:27:55.399Z,55.86
2018-12-18T11:28:57.930Z,55.49
2018-12-18T11:30:00.377Z,55.36
2018-12-18T11:31:02.825Z,55.78
2018-12-18T11:32:05.303Z,55.74
2018-12-18T11:33:07.765Z,55.38
2018-12-18T11:34:10.211Z,55.44
2018-12-18T11:35:12.664Z,55.36
2018-12-18T11:36:16.714Z,54.45
2018-12-18T11:37:19.567Z,54.72
2018-12-18T11:38:22.124Z,54.42
2018-12-18T11:39:24.577Z,55.05
2018-12-18T11:40:27.025Z,54.35
2018-12-18T11:41:29.491Z,54.67
2018-12-18T11:42:31.966Z,54.94
2018-12-18T11:43:34.439Z,55.18
2018-12-18T11:44:37.353Z,54.89
2018-12-18T11:45:39.808Z,54.13
2018-12-18T11:46:42.288Z,54.31
2018-12-18T11:47:44.745Z,54.15
2018-12-18T11:48:47.199Z,53.74
2018-12-18T11:49:49.649Z,53.18
2018-12-18T11:50:52.120Z,52.61
2018-12-18T11:51:54.611Z,51.95
2018-12-18T11:52:57.079Z,52.29
2018-12-18T11:53:59.551Z,51.94
2018-12-18T11:55:02.021Z,51.98
2018-12-18T11:56:04.679Z,51.49
2018-12-18T11:57:07.180Z,51.22
2018-12-18T11:58:09.628Z,51.70
2018-12-18T11:59:12.077Z,51.61
2018-12-18T12:00:16.070Z,51.73
2018-12-18T12:01:18.517Z,51.42
2018-12-18T12:02:21.014Z,50.89
2018-12-18T12:03:23.489Z,50.67
2018-12-18T12:04:25.973Z,50.91
2018-12-18T12:05:28.427Z,50.67
2018-12-18T12:06:30.900Z,50.49
2018-12-18T12:07:33.355Z,50.78
2018-12-18T12:08:35.818Z,50.77
2018-12-18T12:09:38.290Z,51.23
2018-12-18T12:10:42.216Z,51.46
2018-12-18T12:11:45.735Z,51.74
2018-12-18T12:12:48.259Z,51.42
2018-12-18T12:13:50.931Z,51.30
2018-12-18T12:14:53.571Z,51.27
2018-12-18T12:15:56.070Z,51.12
2018-12-18T12:16:58.545Z,50.61
2018-12-18T12:18:01.235Z,50.91
2018-12-18T12:19:03.706Z,50.88
2018-12-18T12:20:06.590Z,50.43
2018-12-18T12:21:09.032Z,50.34
2018-12-18T12:22:11.524Z,50.72
2018-12-18T12:23:14.013Z,50.86
2018-12-18T12:24:16.467Z,50.79
2018-12-18T12:25:18.913Z,50.06
2018-12-18T12:26:27.164Z,50.89
2018-12-18T12:27:35.712Z,50.94
2018-12-18T12:28:38.242Z,50.97
2018-12-18T12:29:40.715Z,50.97
2018-12-18T12:30:43.191Z,50.74
2018-12-18T12:31:45.646Z,50.88
2018-12-18T12:32:48.124Z,50.97
2018-12-18T12:33:50.608Z,50.89
2018-12-18T12:34:53.125Z,50.80
2018-12-18T12:35:55.579Z,51.09
2018-12-18T12:36:58.006Z,51.24
2018-12-18T12:38:00.443Z,51.14
2018-12-18T12:39:03.915Z,50.98
2018-12-18T12:40:07.128Z,50.82
2018-12-18T12:41:09.571Z,50.21
2018-12-18T12:42:12.043Z,50.36
2018-12-18T12:43:14.496Z,50.26
2018-12-18T12:44:16.967Z,50.51
2018-12-18T12:45:19.473Z,49.95
2018-12-18T12:46:21.951Z,50.11
2018-12-18T12:47:24.410Z,49.91
2018-12-18T12:48:28.877Z,49.81
2018-12-18T12:49:37.000Z,49.57
2018-12-18T12:50:39.485Z,49.70
2018-12-18T12:51:41.945Z,49.79
2018-12-18T12:52:44.529Z,49.90
2018-12-18T12:53:47.075Z,49.70
2018-12-18T12:54:49.616Z,49.67
2018-12-18T12:55:52.588Z,49.70
2018-12-18T12:56:55.551Z,49.59
2018-12-18T12:57:58.196Z,49.79
2018-12-18T12:59:00.669Z,49.65
2018-12-18T13:00:03.303Z,49.62
2018-12-18T13:01:05.746Z,49.56
2018-12-18T13:02:08.219Z,49.70
2018-12-18T13:03:10.701Z,50.03
2018-12-18T13:04:13.174Z,50.17
2018-12-18T13:05:15.664Z,50.32
2018-12-18T13:06:18.139Z,50.41
2018-12-18T13:07:20.598Z,50.56
2018-12-18T13:08:23.077Z,50.32
2018-12-18T13:09:25.554Z,50.50
2018-12-18T13:10:28.035Z,50.90
2018-12-18T13:11:30.510Z,51.18
2018-12-18T13:12:33.062Z,50.88
2018-12-18T13:13:35.507Z,51.10
2018-12-18T13:14:37.990Z,51.18
2018-12-18T13:15:40.475Z,51.25
2018-12-18T13:16:43.000Z,51.28
2018-12-18T13:17:45.562Z,51.29
2018-12-18T13:18:48.043Z,50.79
2018-12-18T13:19:50.515Z,50.41
2018-12-18T13:20:53.114Z,50.74
2018-12-18T13:21:55.675Z,50.75
2018-12-18T13:22:58.115Z,50.72
2018-12-18T13:24:00.601Z,50.27
2018-12-18T13:25:03.334Z,50.46
2018-12-18T13:26:05.900Z,50.76
2018-12-18T13:27:08.364Z,50.72
2018-12-18T13:28:11.839Z,50.67
2018-12-18T13:29:14.283Z,51.20
2018-12-18T13:30:16.718Z,51.36
2018-12-18T13:31:19.314Z,51.26
2018-12-18T13:32:21.779Z,51.14